createdAt,value
2022-08-03T00:00:19.984Z,8.38
2022-08-03T00:02:46.576Z,5.38
2022-08-03T00:05:12.933Z,7.45
2022-08-03T00:07:40.202Z,6.38
2022-08-03T00:10:06.737Z,9.88
2022-08-03T00:12:33.197Z,5.38
2022-08-03T00:14:59.619Z,5.72
2022-08-03T00:17:26.320Z,6.03
2022-08-03T00:19:52.704Z,4.72
2022-08-03T00:22:19.261Z,12.07
2022-08-03T00:24:45.656Z,7.03
2022-08-03T00:27:12.011Z,5.55
2022-08-03T00:29:59.583Z,6.55
2022-08-03T00:32:26.807Z,6.68
2022-08-03T00:34:57.591Z,6.80
2022-08-03T00:37:41.202Z,9.57
2022-08-03T00:40:09.373Z,5.82
2022-08-03T00:42:45.857Z,4.63
2022-08-03T00:45:12.270Z,5.63
2022-08-03T00:47:38.585Z,6.47
2022-08-03T00:50:05.145Z,5.85
2022-08-03T00:52:31.467Z,4.65
2022-08-03T00:54:57.816Z,5.82
2022-08-03T00:57:24.174Z,6.53
2022-08-03T00:59:50.590Z,4.97
2022-08-03T01:02:17.182Z,5.70
2022-08-03T01:04:43.697Z,6.88
2022-08-03T01:07:17.832Z,4.00
2022-08-03T01:09:47.157Z,4.32
2022-08-03T01:12:28.750Z,6.07
2022-08-03T01:15:13.742Z,5.28
2022-08-03T01:17:48.502Z,4.33
2022-08-03T01:20:16.969Z,5.88
2022-08-03T01:23:01.807Z,5.95
2022-08-03T01:25:47.048Z,5.45
2022-08-03T01:28:48.203Z,6.03
2022-08-03T01:31:16.743Z,5.10
2022-08-03T01:33:46.883Z,4.60
2022-08-03T01:36:14.640Z,4.40
2022-08-03T01:38:49.560Z,4.32
2022-08-03T01:41:18.787Z,4.75
2022-08-03T01:43:58.986Z,5.47
2022-08-03T01:46:37.061Z,3.83
2022-08-03T01:49:09.393Z,5.70
2022-08-03T01:52:00.842Z,5.38
2022-08-03T01:54:23.953Z,5.18
2022-08-03T01:56:51.267Z,3.85
2022-08-03T01:59:19.056Z,4.85
2022-08-03T02:02:15.524Z,7.53
2022-08-03T02:04:32.887Z,3.65
2022-08-03T02:07:03.100Z,4.60
2022-08-03T02:09:30.558Z,7.32
2022-08-03T02:11:57.445Z,5.65
2022-08-03T02:14:24.536Z,3.95
2022-08-03T02:16:51.551Z,5.22
2022-08-03T02:19:18.290Z,6.53
2022-08-03T02:21:56.874Z,4.05
2022-08-03T02:24:28.287Z,4.38
2022-08-03T02:26:55.955Z,2.38
2022-08-03T02:29:39.177Z,4.68
2022-08-03T02:32:09.839Z,4.25
2022-08-03T02:34:36.905Z,3.83
2022-08-03T02:37:04.500Z,5.45
2022-08-03T02:39:33.330Z,3.47
2022-08-03T02:42:02.442Z,4.72
2022-08-03T02:44:34.745Z,4.95
2022-08-03T02:47:03.589Z,4.55
2022-08-03T02:49:40.729Z,3.80
2022-08-03T02:52:17.728Z,5.93
2022-08-03T02:54:46.205Z,4.80
2022-08-03T02:57:13.821Z,3.92
2022-08-03T02:59:40.985Z,3.88
2022-08-03T03:02:07.705Z,5.63
2022-08-03T03:04:35.167Z,4.57
2022-08-03T03:07:04.411Z,6.65
2022-08-03T03:09:40.512Z,4.45
2022-08-03T03:12:10.542Z,4.85
2022-08-03T03:14:37.577Z,5.22
2022-08-03T03:17:04.180Z,5.32
2022-08-03T03:19:32.430Z,5.80
2022-08-03T03:22:00.091Z,6.15
2022-08-03T03:24:27.086Z,3.58
2022-08-03T03:26:53.984Z,2.85
2022-08-03T03:29:22.191Z,3.08
2022-08-03T03:31:48.797Z,4.47
2022-08-03T03:34:15.230Z,4.85
2022-08-03T03:36:43.010Z,2.70
2022-08-03T03:39:15.816Z,5.63
2022-08-03T03:41:43.087Z,3.88
2022-08-03T03:44:09.829Z,5.28
2022-08-03T03:46:39.524Z,4.25
2022-08-03T03:49:07.395Z,4.53
2022-08-03T03:51:33.915Z,6.55
2022-08-03T03:54:03.000Z,3.95
2022-08-03T03:56:29.641Z,4.85
2022-08-03T03:58:56.574Z,4.13
2022-08-03T04:01:22.993Z,3.97
2022-08-03T04:03:49.464Z,3.63
2022-08-03T04:06:45.655Z,5.53
2022-08-03T04:09:32.577Z,5.70
2022-08-03T04:12:00.595Z,4.45
2022-08-03T04:14:29.817Z,3.28
2022-08-03T04:17:01.857Z,4.05
2022-08-03T04:19:30.441Z,2.90
2022-08-03T04:22:00.772Z,4.13
2022-08-03T04:24:31.174Z,6.47
2022-08-03T04:26:58.904Z,6.18
2022-08-03T04:29:26.170Z,4.45
2022-08-03T04:31:54.520Z,5.05
2022-08-03T04:34:20.894Z,5.20
2022-08-03T04:36:52.837Z,3.75
2022-08-03T04:39:26.636Z,4.60
2022-08-03T04:42:04.683Z,3.83
2022-08-03T04:44:39.130Z,3.45
2022-08-03T04:47:05.537Z,5.35
2022-08-03T04:49:32.243Z,5.78
2022-08-03T04:51:58.584Z,7.45
2022-08-03T04:54:25.076Z,3.58
2022-08-03T04:56:51.451Z,3.78
2022-08-03T04:59:18.030Z,3.20
2022-08-03T05:01:44.494Z,4.47
2022-08-03T05:04:10.925Z,5.75
2022-08-03T05:06:37.326Z,4.18
2022-08-03T05:09:14.260Z,5.38
2022-08-03T05:11:40.921Z,6.80
2022-08-03T05:14:07.215Z,5.95
2022-08-03T05:16:33.567Z,6.28
2022-08-03T05:18:59.936Z,6.60
2022-08-03T05:21:26.495Z,10.30
2022-08-03T05:26:39.120Z,14.25
2022-08-03T05:29:05.430Z,16.40
2022-08-03T05:31:31.876Z,16.00
2022-08-03T05:33:58.288Z,17.60
2022-08-03T05:36:24.757Z,29.30
2022-08-03T05:38:51.217Z,13.95
2022-08-03T05:41:36.912Z,19.00
2022-08-03T05:44:04.061Z,17.58
2022-08-03T05:46:30.424Z,20.88
2022-08-03T05:48:57.031Z,14.38
2022-08-03T05:51:26.561Z,13.68
2022-08-03T05:53:52.969Z,16.70
2022-08-03T05:56:23.290Z,8.65
2022-08-03T05:58:49.612Z,15.60
2022-08-03T06:01:16.726Z,14.20
2022-08-03T06:03:43.445Z,13.50
2022-08-03T06:06:09.952Z,11.52
2022-08-03T06:08:36.366Z,13.75
2022-08-03T06:11:03.415Z,10.82
2022-08-03T06:13:29.792Z,12.98
2022-08-03T06:15:56.165Z,12.05
2022-08-03T06:18:24.522Z,10.50
2022-08-03T06:20:51.358Z,8.95
2022-08-03T06:23:18.802Z,8.43
2022-08-03T06:25:45.375Z,7.70
2022-08-03T06:28:35.309Z,11.75
2022-08-03T06:31:01.092Z,12.13
2022-08-03T06:33:48.375Z,10.40
2022-08-03T06:36:14.251Z,9.38
2022-08-03T06:38:40.594Z,7.68
2022-08-03T06:41:06.891Z,8.32
2022-08-03T06:43:38.035Z,4.72
2022-08-03T06:46:08.015Z,5.25
2022-08-03T06:48:34.321Z,6.25
2022-08-03T06:51:00.698Z,7.43
2022-08-03T06:53:26.986Z,7.93
2022-08-03T06:55:54.998Z,7.03
2022-08-03T06:58:21.964Z,7.75
2022-08-03T07:00:48.388Z,7.88
2022-08-03T07:03:15.245Z,8.75
2022-08-03T07:05:42.757Z,12.38
2022-08-03T07:08:09.394Z,9.85
2022-08-03T07:10:36.214Z,7.32
2022-08-03T07:13:02.734Z,7.32
2022-08-03T07:15:54.062Z,7.40
2022-08-03T07:18:15.388Z,6.70
2022-08-03T07:20:42.197Z,6.40
2022-08-03T07:23:09.905Z,8.25
2022-08-03T07:25:38.270Z,5.68
2022-08-03T07:28:05.053Z,6.47
2022-08-03T07:30:31.505Z,6.88
2022-08-03T07:32:57.898Z,6.65
2022-08-03T07:35:25.367Z,8.75
2022-08-03T07:37:54.328Z,5.25
2022-08-03T07:40:21.180Z,5.95
2022-08-03T07:42:47.633Z,5.13
2022-08-03T07:45:23.455Z,6.75
2022-08-03T07:47:53.889Z,4.75
2022-08-03T07:50:20.537Z,5.03
2022-08-03T07:52:50.329Z,3.92
2022-08-03T07:55:17.521Z,3.53
2022-08-03T07:57:44.000Z,5.25
2022-08-03T08:00:16.232Z,6.55
2022-08-03T08:02:43.064Z,5.47
2022-08-03T08:05:10.999Z,5.38
2022-08-03T08:07:38.111Z,5.20
2022-08-03T08:10:05.715Z,5.40
2022-08-03T08:12:32.017Z,7.18
2022-08-03T08:15:04.870Z,4.78
2022-08-03T08:17:31.284Z,6.88
2022-08-03T08:19:57.918Z,5.40
2022-08-03T08:22:30.712Z,7.72
2022-08-03T08:25:01.246Z,6.70
2022-08-03T08:27:27.899Z,7.63
2022-08-03T08:29:57.551Z,4.70
2022-08-03T08:32:28.991Z,4.07
2022-08-03T08:34:55.497Z,5.82
2022-08-03T08:37:21.866Z,5.20
2022-08-03T08:39:48.287Z,9.15
2022-08-03T08:42:15.892Z,4.43
2022-08-03T08:44:42.451Z,6.35
2022-08-03T08:47:09.331Z,7.50
2022-08-03T08:49:35.959Z,4.80
2022-08-03T08:52:03.411Z,7.38
2022-08-03T08:54:32.445Z,7.88
2022-08-03T08:57:01.946Z,8.95
2022-08-03T08:59:48.503Z,8.40
2022-08-03T09:02:14.940Z,4.70
2022-08-03T09:04:41.511Z,7.97
2022-08-03T09:07:19.751Z,6.80
2022-08-03T09:10:12.146Z,8.93
2022-08-03T09:12:41.839Z,4.40
2022-08-03T09:15:25.236Z,6.25
2022-08-03T09:17:52.841Z,6.22
2022-08-03T09:20:20.423Z,8.43
2022-08-03T09:22:57.214Z,7.45
2022-08-03T09:25:34.460Z,7.38
2022-08-03T09:28:05.045Z,9.90
2022-08-03T09:30:34.649Z,5.20
2022-08-03T09:33:02.559Z,6.90
2022-08-03T09:35:51.629Z,5.03
2022-08-03T09:38:19.679Z,7.15
2022-08-03T09:40:46.222Z,6.47
2022-08-03T09:43:13.562Z,8.15
2022-08-03T09:45:40.726Z,6.18
2022-08-03T09:48:26.041Z,4.78
2022-08-03T09:50:58.551Z,7.55
2022-08-03T09:53:57.190Z,7.95
2022-08-03T09:56:37.489Z,7.00
2022-08-03T09:59:03.849Z,8.98
2022-08-03T10:01:34.111Z,7.47
2022-08-03T10:04:03.481Z,9.02
2022-08-03T10:06:31.001Z,6.75
2022-08-03T10:09:07.841Z,4.60
2022-08-03T10:11:40.868Z,3.90
2022-08-03T10:14:09.034Z,7.28
2022-08-03T10:16:36.972Z,6.35
2022-08-03T10:19:04.400Z,3.25
2022-08-03T10:21:35.512Z,6.85
2022-08-03T10:24:06.151Z,7.00
2022-08-03T10:26:33.137Z,5.30
2022-08-03T10:29:00.991Z,5.60
2022-08-03T10:31:32.164Z,5.30
2022-08-03T10:33:59.313Z,4.97
2022-08-03T10:36:27.379Z,4.13
2022-08-03T10:38:55.154Z,6.25
2022-08-03T10:41:23.283Z,3.63
2022-08-03T10:43:55.902Z,3.72
2022-08-03T10:46:22.460Z,3.35
2022-08-03T10:48:49.742Z,3.25
2022-08-03T10:51:16.660Z,3.60
2022-08-03T10:53:54.185Z,5.55
2022-08-03T10:56:53.436Z,3.63
2022-08-03T10:59:40.758Z,3.95
2022-08-03T11:02:10.693Z,4.57
2022-08-03T11:04:37.202Z,3.35
2022-08-03T11:07:16.238Z,7.25
2022-08-03T11:09:46.400Z,8.38
2022-08-03T11:12:32.840Z,4.25
2022-08-03T11:15:11.149Z,4.88
2022-08-03T11:17:46.162Z,7.45
2022-08-03T11:20:40.889Z,7.03
2022-08-03T11:23:07.550Z,4.55
2022-08-03T11:25:55.373Z,6.35
2022-08-03T11:28:25.438Z,7.50
2022-08-03T11:30:51.819Z,8.20
2022-08-03T11:33:38.385Z,6.93
2022-08-03T11:36:05.182Z,7.30
2022-08-03T11:38:31.631Z,8.18
2022-08-03T11:40:57.992Z,7.03
2022-08-03T11:43:31.616Z,5.07
2022-08-03T11:46:05.410Z,6.67
2022-08-03T11:48:35.801Z,5.82
2022-08-03T11:51:03.046Z,5.10
2022-08-03T11:53:29.499Z,6.53
2022-08-03T11:55:58.391Z,4.80
2022-08-03T11:59:10.869Z,8.18
2022-08-03T12:01:12.497Z,6.80
2022-08-03T12:03:38.918Z,8.23
2022-08-03T12:06:08.925Z,7.75
2022-08-03T12:08:35.337Z,5.93
2022-08-03T12:11:04.422Z,6.00
2022-08-03T12:14:36.785Z,4.30
2022-08-03T12:16:28.751Z,6.13
2022-08-03T12:18:58.618Z,4.53
2022-08-03T12:21:25.062Z,5.70
2022-08-03T12:23:56.016Z,6.53
2022-08-03T12:26:22.514Z,7.63
2022-08-03T12:28:50.060Z,5.68
2022-08-03T12:31:16.852Z,7.57
2022-08-03T12:34:00.470Z,6.75
2022-08-03T12:36:27.330Z,5.38
2022-08-03T12:38:57.786Z,4.85
2022-08-03T12:41:28.748Z,7.68
2022-08-03T12:43:55.232Z,4.95
2022-08-03T12:46:21.620Z,4.35
2022-08-03T12:49:07.758Z,7.72
2022-08-03T12:51:35.700Z,7.15
2022-08-03T12:54:03.075Z,5.18
2022-08-03T12:56:29.460Z,5.75
2022-08-03T12:58:55.885Z,7.93
2022-08-03T13:01:24.479Z,3.58
2022-08-03T13:03:53.690Z,4.03
2022-08-03T13:06:22.393Z,4.85
2022-08-03T13:08:49.900Z,5.20
2022-08-03T13:11:22.443Z,4.05
2022-08-03T13:13:49.654Z,6.43
2022-08-03T13:16:19.323Z,4.47
2022-08-03T13:18:48.943Z,5.38
2022-08-03T13:21:19.385Z,2.63
2022-08-03T13:23:46.076Z,4.75
2022-08-03T13:26:12.593Z,5.15
2022-08-03T13:28:39.391Z,4.18
2022-08-03T13:31:07.086Z,5.43
2022-08-03T13:33:33.827Z,3.80
2022-08-03T13:36:00.182Z,3.72
2022-08-03T13:38:27.024Z,5.13
2022-08-03T13:40:53.770Z,3.88
2022-08-03T13:43:20.893Z,5.57
2022-08-03T13:45:52.368Z,3.20
2022-08-03T13:48:36.713Z,3.95
2022-08-03T13:51:21.682Z,8.93
2022-08-03T13:53:49.607Z,3.60
2022-08-03T13:56:15.889Z,3.10
2022-08-03T13:58:42.254Z,3.20
2022-08-03T14:01:08.678Z,2.38
2022-08-03T14:03:35.069Z,3.03
2022-08-03T14:06:01.430Z,2.25
2022-08-03T14:08:27.737Z,2.28
2022-08-03T14:10:54.221Z,4.75
2022-08-03T14:13:20.597Z,4.47
2022-08-03T14:15:50.120Z,4.53
2022-08-03T14:18:27.875Z,3.35
2022-08-03T14:21:04.999Z,2.75
2022-08-03T14:23:32.920Z,3.83
2022-08-03T14:25:59.230Z,3.45
2022-08-03T14:28:25.602Z,5.40
2022-08-03T14:30:52.735Z,5.10
2022-08-03T14:33:19.429Z,4.95
2022-08-03T14:35:45.997Z,7.60
2022-08-03T14:38:12.407Z,5.50
2022-08-03T14:40:38.863Z,3.55
2022-08-03T14:43:05.251Z,2.90
2022-08-03T14:45:31.659Z,4.32
2022-08-03T14:50:30.725Z,3.78
2022-08-03T14:50:51.075Z,5.05
2022-08-03T14:53:18.390Z,2.72
2022-08-03T14:55:50.245Z,16.63
2022-08-03T14:58:20.806Z,2.70
2022-08-03T15:00:48.313Z,4.78
2022-08-03T15:03:16.683Z,7.10
2022-08-03T15:05:43.684Z,2.38
2022-08-03T15:08:10.023Z,3.83
2022-08-03T15:10:40.402Z,4.75
2022-08-03T15:13:12.189Z,2.58
2022-08-03T15:15:38.476Z,2.67
2022-08-03T15:18:04.851Z,4.10
2022-08-03T15:20:43.244Z,1.58
2022-08-03T15:23:09.932Z,2.72
2022-08-03T15:26:06.471Z,3.20
2022-08-03T15:28:22.545Z,2.38
2022-08-03T15:30:48.825Z,2.10
2022-08-03T15:33:15.141Z,3.03
2022-08-03T15:35:41.690Z,4.03
2022-08-03T15:38:09.623Z,2.15
2022-08-03T15:40:36.264Z,2.25
2022-08-03T15:43:02.892Z,3.50
2022-08-03T15:45:29.501Z,3.13
2022-08-03T15:48:12.990Z,5.20
2022-08-03T15:50:40.788Z,1.50
2022-08-03T15:53:07.111Z,1.65
2022-08-03T15:55:33.682Z,3.28
2022-08-03T15:59:03.848Z,2.75
2022-08-03T16:00:46.538Z,2.97
2022-08-03T16:03:16.038Z,2.58
2022-08-03T16:05:42.472Z,2.80
2022-08-03T16:08:13.555Z,2.13
2022-08-03T16:10:40.674Z,2.30
2022-08-03T16:13:07.244Z,1.52
2022-08-03T16:15:38.649Z,5.53
2022-08-03T16:18:05.923Z,2.03
2022-08-03T16:20:35.029Z,2.60
2022-08-03T16:23:10.846Z,1.83
2022-08-03T16:25:41.863Z,3.22
2022-08-03T16:28:13.441Z,1.60
2022-08-03T16:30:41.867Z,2.25
2022-08-03T16:33:08.362Z,3.03
2022-08-03T16:35:34.704Z,2.45
2022-08-03T16:38:01.051Z,1.88
2022-08-03T16:40:27.558Z,2.28
2022-08-03T16:42:53.930Z,1.88
2022-08-03T16:45:20.323Z,1.60
2022-08-03T16:47:46.667Z,3.53
2022-08-03T16:50:19.671Z,1.80
2022-08-03T16:52:47.425Z,2.00
2022-08-03T16:55:18.346Z,1.65
2022-08-03T16:58:02.583Z,2.85
2022-08-03T17:00:32.984Z,4.30
2022-08-03T17:03:04.218Z,2.38
2022-08-03T17:05:43.893Z,2.03
2022-08-03T17:08:14.119Z,1.50
2022-08-03T17:10:41.914Z,2.33
2022-08-03T17:13:11.895Z,2.35
2022-08-03T17:16:00.992Z,2.92
2022-08-03T17:18:32.422Z,3.90
2022-08-03T17:21:03.236Z,3.05
2022-08-03T17:23:39.059Z,4.50
2022-08-03T17:26:14.739Z,3.25
2022-08-03T17:28:57.197Z,4.85
2022-08-03T17:31:32.009Z,4.13
2022-08-03T17:34:00.295Z,5.28
2022-08-03T17:36:41.841Z,5.43
2022-08-03T17:39:14.079Z,8.60
2022-08-03T17:41:50.086Z,10.32
2022-08-03T17:44:29.531Z,6.88
2022-08-03T17:47:03.486Z,9.68
2022-08-03T17:49:29.942Z,8.98
2022-08-03T17:52:06.039Z,7.75
2022-08-03T17:55:56.145Z,8.57
2022-08-03T17:58:02.077Z,10.80
2022-08-03T18:00:51.793Z,9.52
2022-08-03T18:03:27.938Z,8.68
2022-08-03T18:06:11.887Z,7.38
2022-08-03T18:08:58.200Z,8.27
2022-08-03T18:11:37.052Z,11.82
2022-08-03T18:14:16.297Z,8.50
2022-08-03T18:16:43.197Z,10.40
2022-08-03T18:19:13.714Z,12.13
2022-08-03T18:22:03.398Z,13.25
2022-08-03T18:24:28.486Z,11.73
2022-08-03T18:26:57.010Z,23.42
2022-08-03T18:29:23.777Z,19.48
2022-08-03T18:32:03.297Z,20.52
2022-08-03T18:34:34.248Z,22.40
2022-08-03T18:37:04.308Z,33.80
2022-08-03T18:39:36.073Z,20.55
2022-08-03T18:42:20.172Z,34.63
2022-08-03T18:44:56.194Z,16.90
2022-08-03T18:47:23.266Z,16.30
2022-08-03T18:50:07.504Z,30.00
2022-08-03T18:52:45.957Z,28.60
2022-08-03T18:55:35.472Z,24.70
2022-08-03T18:58:18.019Z,21.05
2022-08-03T19:00:54.749Z,20.13
2022-08-03T19:03:24.463Z,20.38
2022-08-03T19:06:02.784Z,19.52
2022-08-03T19:08:42.846Z,18.20
2022-08-03T19:11:11.253Z,21.77
2022-08-03T19:13:50.248Z,20.70
2022-08-03T19:16:21.699Z,25.02
2022-08-03T19:18:50.037Z,28.90
2022-08-03T19:21:16.676Z,26.85
2022-08-03T19:23:45.035Z,34.25
2022-08-03T19:26:30.196Z,33.33
2022-08-03T19:28:57.928Z,36.22
2022-08-03T19:31:25.784Z,33.72
2022-08-03T19:34:00.289Z,31.38
2022-08-03T19:36:28.643Z,45.40
2022-08-03T19:38:55.584Z,34.97
2022-08-03T19:41:24.006Z,45.20
2022-08-03T19:43:58.194Z,30.15
2022-08-03T19:46:30.900Z,36.15
2022-08-03T19:49:03.160Z,30.90
2022-08-03T19:51:58.357Z,35.55
2022-08-03T19:54:29.429Z,35.75
2022-08-03T19:56:56.531Z,33.28
2022-08-03T19:59:24.777Z,40.25
2022-08-03T20:01:52.918Z,36.88
2022-08-03T20:04:20.598Z,33.28
2022-08-03T20:06:47.692Z,32.75
2022-08-03T20:09:16.548Z,32.15
2022-08-03T20:11:43.884Z,30.45
2022-08-03T20:14:11.769Z,28.35
2022-08-03T20:16:47.349Z,30.70
2022-08-03T20:19:14.460Z,29.05
2022-08-03T20:21:44.008Z,33.08
2022-08-03T20:24:24.488Z,27.85
2022-08-03T20:26:53.361Z,26.00
2022-08-03T20:30:05.370Z,31.08
2022-08-03T20:32:14.087Z,31.13
2022-08-03T20:34:40.713Z,31.98
2022-08-03T20:37:12.085Z,30.13
2022-08-03T20:39:38.649Z,34.75
2022-08-03T20:42:06.892Z,28.73
2022-08-03T20:44:36.281Z,25.95
2022-08-03T20:47:07.156Z,28.95
2022-08-03T20:49:46.083Z,26.83
2022-08-03T20:52:18.736Z,30.58
2022-08-03T20:54:46.171Z,26.95
2022-08-03T20:57:13.689Z,35.17
2022-08-03T20:59:50.461Z,22.52
2022-08-03T21:02:19.613Z,30.15
2022-08-03T21:04:55.731Z,30.00
2022-08-03T21:07:23.145Z,28.58
2022-08-03T21:09:53.400Z,26.35
2022-08-03T21:12:50.233Z,25.45
2022-08-03T21:16:11.786Z,28.67
2022-08-03T21:18:05.853Z,26.17
2022-08-03T21:20:34.389Z,25.38
2022-08-03T21:23:01.150Z,23.90
2022-08-03T21:25:30.738Z,26.77
2022-08-03T21:27:57.268Z,21.20
2022-08-03T21:30:24.798Z,24.23
2022-08-03T21:32:52.301Z,25.90
2022-08-03T21:35:19.239Z,28.70
2022-08-03T21:37:46.248Z,32.47
2022-08-03T21:40:13.986Z,27.83
2022-08-03T21:42:40.721Z,21.55
2022-08-03T21:45:08.371Z,24.58
2022-08-03T21:47:38.632Z,20.77
2022-08-03T21:50:09.481Z,19.95
2022-08-03T21:52:40.147Z,22.15
2022-08-03T21:55:06.984Z,23.65
2022-08-03T21:57:33.703Z,24.23
2022-08-03T22:00:07.698Z,15.43
2022-08-03T22:02:34.575Z,17.35
2022-08-03T22:05:05.145Z,18.48
2022-08-03T22:07:32.751Z,17.95
2022-08-03T22:09:59.902Z,14.32
2022-08-03T22:12:27.634Z,15.75
2022-08-03T22:15:00.282Z,14.95
2022-08-03T22:17:55.708Z,13.60
2022-08-03T22:20:15.018Z,14.55
2022-08-03T22:22:43.437Z,12.52
2022-08-03T22:25:23.120Z,15.40
2022-08-03T22:27:51.143Z,12.10
2022-08-03T22:30:18.881Z,11.05
2022-08-03T22:32:45.623Z,10.15
2022-08-03T22:35:13.354Z,12.32
2022-08-03T22:37:41.031Z,9.57
2022-08-03T22:40:12.404Z,11.68
2022-08-03T22:42:40.085Z,11.02
2022-08-03T22:45:07.257Z,10.70
2022-08-03T22:47:38.033Z,9.95
2022-08-03T22:50:32.266Z,9.07
2022-08-03T22:52:55.488Z,11.55
2022-08-03T22:55:24.729Z,11.65
2022-08-03T22:57:55.963Z,9.10
2022-08-03T23:00:22.686Z,8.60
2022-08-03T23:02:49.544Z,7.85
2022-08-03T23:06:00.990Z,8.52
2022-08-03T23:08:06.535Z,9.43
2022-08-03T23:10:34.168Z,10.27
2022-08-03T23:13:01.024Z,10.15
2022-08-03T23:15:29.821Z,6.93
2022-08-03T23:17:58.558Z,11.27
2022-08-03T23:20:26.504Z,7.72
2022-08-03T23:22:54.207Z,8.63
2022-08-03T23:25:22.783Z,8.60
2022-08-03T23:28:04.878Z,9.38
2022-08-03T23:30:34.486Z,5.97
2022-08-03T23:33:01.233Z,6.80
2022-08-03T23:36:27.738Z,7.28
2022-08-03T23:38:36.222Z,8.05
2022-08-03T23:41:03.556Z,9.63
2022-08-03T23:43:52.227Z,6.95
2022-08-03T23:46:19.715Z,4.93
2022-08-03T23:48:46.136Z,6.85
2022-08-03T23:51:27.145Z,6.38
2022-08-03T23:54:02.495Z,5.43
2022-08-03T23:56:28.792Z,5.85
2022-08-03T23:59:13.872Z,7.47
